createdAt,value
2023-05-02T00:01:36.307Z,94698.28
2023-05-02T00:04:05.384Z,94702.06
2023-05-02T00:06:35.549Z,94692.84
2023-05-02T00:09:05.175Z,94686.38
2023-05-02T00:11:33.672Z,94694.47
2023-05-02T00:14:02.144Z,94685.81
2023-05-02T00:16:30.713Z,94689.34
2023-05-02T00:18:59.178Z,94698.06
2023-05-02T00:21:29.276Z,94700.13
2023-05-02T00:23:59.261Z,94704.44
2023-05-02T00:26:28.922Z,94707.75
2023-05-02T00:28:57.365Z,94709.09
2023-05-02T00:31:26.007Z,94710.00
2023-05-02T00:33:54.485Z,94709.22
2023-05-02T00:36:47.780Z,94707.88
2023-05-02T00:39:17.601Z,94710.91
2023-05-02T00:41:46.042Z,94713.09
2023-05-02T00:44:14.643Z,94714.31
2023-05-02T00:46:43.286Z,94709.44
2023-05-02T00:49:11.767Z,94721.13
2023-05-02T00:51:41.308Z,94728.59
2023-05-02T00:54:09.845Z,94715.69
2023-05-02T00:56:39.724Z,94726.69
2023-05-02T00:59:12.074Z,94728.31
2023-05-02T01:01:57.915Z,94727.38
2023-05-02T01:04:41.363Z,94708.09
2023-05-02T01:07:37.038Z,94722.41
2023-05-02T01:10:24.831Z,94716.97
2023-05-02T01:13:04.700Z,94720.47
2023-05-02T01:15:38.704Z,94721.47
2023-05-02T01:18:12.089Z,94718.09
2023-05-02T01:20:46.034Z,94712.75
2023-05-02T01:23:27.022Z,94709.31
2023-05-02T01:26:13.728Z,94709.75
2023-05-02T01:29:01.865Z,94704.44
2023-05-02T01:31:36.827Z,94700.91
2023-05-02T01:34:10.845Z,94709.31
2023-05-02T01:36:45.592Z,94705.44
2023-05-02T01:39:20.416Z,94717.38
2023-05-02T01:41:52.425Z,94720.19
2023-05-02T01:44:25.420Z,94712.13
2023-05-02T01:46:56.429Z,94719.25
2023-05-02T01:49:28.051Z,94719.16
2023-05-02T01:51:58.207Z,94713.72
2023-05-02T01:54:28.656Z,94714.03
2023-05-02T01:56:58.554Z,94717.34
2023-05-02T01:59:31.195Z,94721.78
2023-05-02T02:02:07.718Z,94717.25
2023-05-02T02:04:39.138Z,94726.69
2023-05-02T02:07:14.237Z,94708.06
2023-05-02T02:09:43.210Z,94709.53
2023-05-02T02:12:18.289Z,94710.19
2023-05-02T02:14:58.215Z,94710.78
2023-05-02T02:17:37.887Z,94712.81
2023-05-02T02:20:11.275Z,94714.38
2023-05-02T02:22:42.225Z,94699.75
2023-05-02T02:25:18.087Z,94710.56
2023-05-02T02:27:46.861Z,94715.78
2023-05-02T02:30:16.918Z,94722.59
2023-05-02T02:32:45.471Z,94732.47
2023-05-02T02:35:14.039Z,94726.69
2023-05-02T02:37:49.410Z,94718.97
2023-05-02T02:40:31.091Z,94718.25
2023-05-02T02:43:20.447Z,94717.47
2023-05-02T02:46:05.235Z,94728.38
2023-05-02T02:48:38.145Z,94727.00
2023-05-02T02:51:16.050Z,94729.84
2023-05-02T02:54:05.942Z,94740.78
2023-05-02T02:56:43.435Z,94736.78
2023-05-02T02:59:18.910Z,94739.41
2023-05-02T03:02:03.687Z,94743.81
2023-05-02T03:04:35.122Z,94737.75
2023-05-02T03:07:04.981Z,94747.66
2023-05-02T03:09:43.453Z,94744.59
2023-05-02T03:12:13.173Z,94745.25
2023-05-02T03:14:42.512Z,94746.28
2023-05-02T03:17:12.384Z,94757.63
2023-05-02T03:19:41.135Z,94747.63
2023-05-02T03:22:09.686Z,94755.09
2023-05-02T03:24:38.138Z,94742.31
2023-05-02T03:27:06.960Z,94744.72
2023-05-02T03:29:35.491Z,94758.69
2023-05-02T03:32:04.106Z,94760.19
2023-05-02T03:34:34.080Z,94765.53
2023-05-02T03:37:02.615Z,94761.75
2023-05-02T03:39:31.184Z,94766.41
2023-05-02T03:41:59.692Z,94766.31
2023-05-02T03:44:28.202Z,94764.28
2023-05-02T03:46:56.707Z,94759.63
2023-05-02T03:49:25.226Z,94764.38
2023-05-02T03:51:55.246Z,94768.16
2023-05-02T03:54:24.094Z,94769.00
2023-05-02T03:56:52.753Z,94767.97
2023-05-02T03:59:21.211Z,94771.50
2023-05-02T04:01:51.236Z,94774.22
2023-05-02T04:04:19.857Z,94784.50
2023-05-02T04:06:48.424Z,94771.00
2023-05-02T04:09:19.221Z,94776.03
2023-05-02T04:11:47.816Z,94773.75
2023-05-02T04:14:16.271Z,94779.13
2023-05-02T04:16:50.084Z,94766.38
2023-05-02T04:19:19.335Z,94780.56
2023-05-02T04:21:47.838Z,94768.13
2023-05-02T04:24:17.692Z,94775.16
2023-05-02T04:26:47.613Z,94777.19
2023-05-02T04:29:16.050Z,94777.91
2023-05-02T04:31:44.960Z,94780.66
2023-05-02T04:34:13.510Z,94786.72
2023-05-02T04:36:42.049Z,94771.97
2023-05-02T04:39:10.841Z,94778.03
2023-05-02T04:41:40.821Z,94787.28
2023-05-02T04:44:09.285Z,94785.25
2023-05-02T04:46:37.796Z,94782.31
2023-05-02T04:49:06.357Z,94781.59
2023-05-02T04:51:35.127Z,94791.63
2023-05-02T04:54:03.565Z,94783.00
2023-05-02T04:56:32.057Z,94780.63
2023-05-02T04:59:01.972Z,94787.56
2023-05-02T05:01:30.872Z,94789.94
2023-05-02T05:03:59.491Z,94786.66
2023-05-02T05:06:28.432Z,94790.44
2023-05-02T05:09:24.766Z,94781.34
2023-05-02T05:11:53.258Z,94781.41
2023-05-02T05:14:24.330Z,94781.97
2023-05-02T05:16:52.890Z,94786.28
2023-05-02T05:19:21.365Z,94786.88
2023-05-02T05:22:15.385Z,94772.81
2023-05-02T05:24:43.866Z,94775.56
2023-05-02T05:27:12.367Z,94778.06
2023-05-02T05:29:42.233Z,94774.19
2023-05-02T05:32:35.731Z,94777.91
2023-05-02T05:35:16.541Z,94780.28
2023-05-02T05:37:44.977Z,94778.75
2023-05-02T05:40:13.888Z,94781.72
2023-05-02T05:42:42.377Z,94788.56
2023-05-02T05:45:19.662Z,94788.03
2023-05-02T05:47:48.221Z,94782.03
2023-05-02T05:50:17.002Z,94779.69
2023-05-02T05:52:45.464Z,94792.34
2023-05-02T05:55:42.473Z,94786.56
2023-05-02T05:58:11.089Z,94782.09
2023-05-02T06:00:42.996Z,94787.38
2023-05-02T06:03:11.729Z,94791.59
2023-05-02T06:05:40.842Z,94801.41
2023-05-02T06:08:09.415Z,94800.56
2023-05-02T06:10:37.850Z,94797.38
2023-05-02T06:13:06.435Z,94791.84
2023-05-02T06:15:36.083Z,94790.03
2023-05-02T06:18:06.223Z,94791.38
2023-05-02T06:20:36.494Z,94792.38
2023-05-02T06:23:04.995Z,94793.50
2023-05-02T06:25:34.028Z,94786.63
2023-05-02T06:28:02.447Z,94784.25
2023-05-02T06:30:31.051Z,94787.41
2023-05-02T06:32:59.556Z,94796.66
2023-05-02T06:35:29.486Z,94784.78
2023-05-02T06:38:07.134Z,94788.22
2023-05-02T06:40:37.593Z,94795.34
2023-05-02T06:43:06.000Z,94785.53
2023-05-02T06:45:34.496Z,94781.03
2023-05-02T06:48:02.995Z,94797.38
2023-05-02T06:50:32.856Z,94796.06
2023-05-02T06:53:01.472Z,94787.88
2023-05-02T06:55:30.296Z,94787.03
2023-05-02T06:57:58.909Z,94790.44
2023-05-02T07:00:27.387Z,94788.59
2023-05-02T07:02:56.667Z,94787.78
2023-05-02T07:05:25.228Z,94782.19
2023-05-02T07:07:55.175Z,94780.56
2023-05-02T07:10:23.963Z,94781.38
2023-05-02T07:12:52.427Z,94784.75
2023-05-02T07:15:21.120Z,94788.94
2023-05-02T07:17:49.706Z,94786.53
2023-05-02T07:20:18.229Z,94788.63
2023-05-02T07:22:46.761Z,94782.75
2023-05-02T07:25:16.831Z,94786.69
2023-05-02T07:27:45.249Z,94789.31
2023-05-02T07:30:14.758Z,94789.19
2023-05-02T07:32:43.269Z,94787.47
2023-05-02T07:35:11.782Z,94783.66
2023-05-02T07:37:40.185Z,94799.63
2023-05-02T07:40:10.688Z,94798.88
2023-05-02T07:42:41.799Z,94790.31
2023-05-02T07:45:11.494Z,94792.53
2023-05-02T07:47:39.986Z,94787.47
2023-05-02T07:50:09.752Z,94798.94
2023-05-02T07:52:38.293Z,94789.81
2023-05-02T07:55:08.439Z,94792.69
2023-05-02T07:57:36.964Z,94780.16
2023-05-02T08:00:10.374Z,94781.53
2023-05-02T08:02:39.191Z,94786.78
2023-05-02T08:05:09.423Z,94777.97
2023-05-02T08:07:38.003Z,94778.09
2023-05-02T08:10:08.064Z,94775.06
2023-05-02T08:12:40.929Z,94777.00
2023-05-02T08:15:14.454Z,94777.59
2023-05-02T08:17:43.011Z,94773.53
2023-05-02T08:20:12.431Z,94770.75
2023-05-02T08:22:41.012Z,94774.34
2023-05-02T08:25:10.344Z,94777.59
2023-05-02T08:27:38.833Z,94771.81
2023-05-02T08:30:10.507Z,94766.75
2023-05-02T08:32:39.306Z,94767.81
2023-05-02T08:35:09.174Z,94758.63
2023-05-02T08:37:37.775Z,94765.72
2023-05-02T08:40:11.725Z,94759.06
2023-05-02T08:42:44.937Z,94763.03
2023-05-02T08:45:16.884Z,94760.56
2023-05-02T08:47:48.189Z,94764.03
2023-05-02T08:50:19.533Z,94765.28
2023-05-02T08:52:52.299Z,94760.00
2023-05-02T08:55:27.812Z,94765.81
2023-05-02T08:57:59.548Z,94761.16
2023-05-02T09:00:34.030Z,94756.97
2023-05-02T09:03:23.764Z,94747.53
2023-05-02T09:06:19.362Z,94739.75
2023-05-02T09:08:50.458Z,94746.81
2023-05-02T09:11:19.740Z,94740.03
2023-05-02T09:13:49.780Z,94748.84
2023-05-02T09:16:25.486Z,94735.13
2023-05-02T09:18:56.204Z,94742.81
2023-05-02T09:21:40.092Z,94737.81
2023-05-02T09:24:19.375Z,94739.53
2023-05-02T09:27:01.260Z,94739.63
2023-05-02T09:29:35.872Z,94740.41
2023-05-02T09:32:08.002Z,94738.72
2023-05-02T09:34:37.527Z,94732.72
2023-05-02T09:37:06.495Z,94739.72
2023-05-02T09:39:35.025Z,94728.34
2023-05-02T09:42:03.973Z,94724.72
2023-05-02T09:44:39.328Z,94737.94
2023-05-02T09:47:09.747Z,94727.38
2023-05-02T09:49:44.892Z,94724.91
2023-05-02T09:52:14.794Z,94727.97
2023-05-02T09:54:43.744Z,94719.19
2023-05-02T09:57:12.215Z,94715.47
2023-05-02T09:59:41.725Z,94718.59
2023-05-02T10:02:13.476Z,94713.28
2023-05-02T10:04:43.148Z,94714.44
2023-05-02T10:07:13.904Z,94714.34
2023-05-02T10:09:46.328Z,94715.72
2023-05-02T10:12:17.315Z,94710.13
2023-05-02T10:14:51.938Z,94702.41
2023-05-02T10:17:32.096Z,94704.97
2023-05-02T10:20:05.577Z,94709.78
2023-05-02T10:22:36.226Z,94697.44
2023-05-02T10:25:06.263Z,94694.16
2023-05-02T10:27:34.989Z,94692.44
2023-05-02T10:30:04.391Z,94694.31
2023-05-02T10:32:35.400Z,94686.50
2023-05-02T10:35:07.136Z,94682.81
2023-05-02T10:38:26.176Z,94674.63
2023-05-02T10:41:00.226Z,94683.00
2023-05-02T10:43:34.730Z,94688.63
2023-05-02T10:46:04.102Z,94679.72
2023-05-02T10:48:35.429Z,94693.41
2023-05-02T10:51:04.093Z,94680.13
2023-05-02T10:53:36.547Z,94687.16
2023-05-02T10:56:18.352Z,94686.59
2023-05-02T10:58:48.967Z,94676.56
2023-05-02T11:01:38.133Z,94673.00
2023-05-02T11:04:12.152Z,94663.38
2023-05-02T11:07:56.195Z,94663.19
2023-05-02T11:10:30.448Z,94656.13
2023-05-02T11:13:01.283Z,94653.28
2023-05-02T11:15:58.084Z,94664.78
2023-05-02T11:18:26.909Z,94658.63
2023-05-02T11:21:39.109Z,94648.97
2023-05-02T11:24:41.254Z,94649.31
2023-05-02T11:27:40.860Z,94653.97
2023-05-02T11:30:11.194Z,94648.97
2023-05-02T11:33:20.375Z,94641.44
2023-05-02T11:35:50.297Z,94638.72
2023-05-02T11:38:22.693Z,94643.53
2023-05-02T11:41:04.478Z,94639.31
2023-05-02T11:43:33.551Z,94631.41
2023-05-02T11:46:03.606Z,94617.75
2023-05-02T11:48:32.622Z,94621.25
2023-05-02T11:51:05.188Z,94624.38
2023-05-02T11:53:41.287Z,94623.88
2023-05-02T11:56:10.161Z,94617.56
2023-05-02T11:58:38.679Z,94614.53
2023-05-02T12:01:15.113Z,94604.97
2023-05-02T12:03:44.156Z,94608.50
2023-05-02T12:06:15.347Z,94602.16
2023-05-02T12:08:46.707Z,94579.19
2023-05-02T12:11:16.743Z,94573.72
2023-05-02T12:13:50.233Z,94578.44
2023-05-02T12:16:22.313Z,94580.09
2023-05-02T12:18:51.123Z,94575.78
2023-05-02T12:21:20.711Z,94573.28
2023-05-02T12:23:50.856Z,94562.09
2023-05-02T12:26:21.422Z,94566.88
2023-05-02T12:28:51.596Z,94565.69
2023-05-02T12:31:20.838Z,94574.22
2023-05-02T12:34:14.159Z,94556.09
2023-05-02T12:36:46.209Z,94554.75
2023-05-02T12:39:16.413Z,94551.78
2023-05-02T12:41:46.212Z,94542.22
2023-05-02T12:44:14.756Z,94530.31
2023-05-02T12:47:01.585Z,94527.72
2023-05-02T12:49:31.788Z,94542.88
2023-05-02T12:52:00.357Z,94557.78
2023-05-02T12:54:30.209Z,94529.38
2023-05-02T12:56:58.960Z,94532.97
2023-05-02T12:59:30.038Z,94514.63
2023-05-02T13:01:59.217Z,94532.97
2023-05-02T13:04:36.398Z,94518.84
2023-05-02T13:07:04.890Z,94518.03
2023-05-02T13:09:34.930Z,94518.34
2023-05-02T13:12:04.633Z,94527.88
2023-05-02T13:14:33.234Z,94509.00
2023-05-02T13:17:01.871Z,94533.28
2023-05-02T13:19:31.596Z,94516.50
2023-05-02T13:22:00.204Z,94507.44
2023-05-02T13:24:28.697Z,94506.41
2023-05-02T13:26:58.558Z,94523.66
2023-05-02T13:29:26.930Z,94515.50
2023-05-02T13:31:55.418Z,94497.91
2023-05-02T13:34:26.962Z,94502.63
2023-05-02T13:36:55.389Z,94503.84
2023-05-02T13:39:23.898Z,94506.94
2023-05-02T13:41:52.305Z,94501.13
2023-05-02T13:44:22.310Z,94499.28
2023-05-02T13:46:50.800Z,94501.00
2023-05-02T13:49:19.263Z,94509.13
2023-05-02T13:51:48.662Z,94500.38
2023-05-02T13:54:17.870Z,94502.13
2023-05-02T13:56:46.353Z,94482.97
2023-05-02T13:59:14.863Z,94506.22
2023-05-02T14:01:44.812Z,94496.28
2023-05-02T14:04:13.480Z,94499.91
2023-05-02T14:06:41.989Z,94494.53
2023-05-02T14:09:10.637Z,94493.63
2023-05-02T14:11:39.121Z,94483.25
2023-05-02T14:14:09.032Z,94499.25
2023-05-02T14:16:37.537Z,94506.13
2023-05-02T14:19:25.743Z,94524.19
2023-05-02T14:21:54.203Z,94511.97
2023-05-02T14:24:24.682Z,94501.25
2023-05-02T14:26:53.158Z,94489.03
2023-05-02T14:29:21.688Z,94491.34
2023-05-02T14:32:10.607Z,94495.78
2023-05-02T14:35:06.057Z,94504.31
2023-05-02T14:37:34.638Z,94486.44
2023-05-02T14:40:03.722Z,94496.47
2023-05-02T14:42:32.490Z,94486.38
2023-05-02T14:45:02.468Z,94491.63
2023-05-02T14:47:32.068Z,94490.66
2023-05-02T14:50:00.973Z,94508.97
2023-05-02T14:52:31.104Z,94487.50
2023-05-02T14:55:01.427Z,94488.63
2023-05-02T14:57:29.945Z,94485.31
2023-05-02T14:59:58.725Z,94490.19
2023-05-02T15:02:27.465Z,94493.81
2023-05-02T15:04:55.955Z,94496.34
2023-05-02T15:07:24.561Z,94492.41
2023-05-02T15:09:54.507Z,94513.25
2023-05-02T15:12:22.988Z,94487.78
2023-05-02T15:14:51.472Z,94489.34
2023-05-02T15:17:19.972Z,94481.22
2023-05-02T15:19:48.436Z,94494.84
2023-05-02T15:22:18.346Z,94492.47
2023-05-02T15:24:46.831Z,94486.63
2023-05-02T15:27:16.613Z,94495.69
2023-05-02T15:29:45.004Z,94503.03
2023-05-02T15:32:41.369Z,94497.91
2023-05-02T15:35:35.890Z,94476.00
2023-05-02T15:38:04.469Z,94498.16
2023-05-02T15:40:32.907Z,94479.84
2023-05-02T15:43:02.717Z,94482.69
2023-05-02T15:45:31.527Z,94470.78
2023-05-02T15:48:00.069Z,94497.69
2023-05-02T15:50:28.648Z,94499.94
2023-05-02T15:52:57.116Z,94491.09
2023-05-02T15:55:26.758Z,94463.72
2023-05-02T15:57:55.224Z,94470.06
2023-05-02T16:00:25.904Z,94472.94
2023-05-02T16:02:55.650Z,94474.81
2023-05-02T16:05:24.309Z,94470.91
2023-05-02T16:07:52.749Z,94471.59
2023-05-02T16:10:21.478Z,94469.63
2023-05-02T16:12:49.939Z,94486.66
2023-05-02T16:15:18.594Z,94473.50
2023-05-02T16:17:49.071Z,94485.63
2023-05-02T16:20:33.972Z,94482.38
2023-05-02T16:23:02.649Z,94471.34
2023-05-02T16:25:31.264Z,94482.88
2023-05-02T16:27:59.779Z,94482.34
2023-05-02T16:30:28.994Z,94488.44
2023-05-02T16:32:59.471Z,94486.66
2023-05-02T16:36:02.800Z,94491.59
2023-05-02T16:38:31.414Z,94495.81
2023-05-02T16:40:59.983Z,94493.56
2023-05-02T16:43:28.434Z,94501.63
2023-05-02T16:46:22.209Z,94498.84
2023-05-02T16:48:52.091Z,94509.66
2023-05-02T16:51:20.912Z,94507.56
2023-05-02T16:53:49.640Z,94511.78
2023-05-02T16:56:32.000Z,94508.94
2023-05-02T16:59:00.796Z,94505.28
2023-05-02T17:01:38.141Z,94516.25
2023-05-02T17:04:08.041Z,94512.03
2023-05-02T17:06:36.639Z,94515.44
2023-05-02T17:09:05.392Z,94511.28
2023-05-02T17:11:43.818Z,94519.00
2023-05-02T17:14:13.319Z,94516.72
2023-05-02T17:16:42.074Z,94529.75
2023-05-02T17:19:36.996Z,94518.38
2023-05-02T17:22:06.795Z,94539.66
2023-05-02T17:24:36.535Z,94527.63
2023-05-02T17:27:05.284Z,94536.16
2023-05-02T17:29:59.719Z,94531.50
2023-05-02T17:32:28.517Z,94526.19
2023-05-02T17:34:58.805Z,94527.47
2023-05-02T17:37:27.538Z,94529.53
2023-05-02T17:39:56.237Z,94555.75
2023-05-02T17:42:24.751Z,94534.63
2023-05-02T17:44:54.045Z,94533.34
2023-05-02T17:47:22.699Z,94549.81
2023-05-02T17:49:53.229Z,94538.72
2023-05-02T17:52:23.169Z,94542.72
2023-05-02T17:54:51.889Z,94563.66
2023-05-02T17:57:20.431Z,94542.28
2023-05-02T17:59:50.631Z,94551.28
2023-05-02T18:02:19.020Z,94557.72
2023-05-02T18:04:48.052Z,94551.72
2023-05-02T18:07:16.579Z,94566.06
2023-05-02T18:09:46.460Z,94569.31
2023-05-02T18:12:15.779Z,94550.78
2023-05-02T18:14:44.255Z,94561.19
2023-05-02T18:17:12.793Z,94561.75
2023-05-02T18:19:41.730Z,94562.25
2023-05-02T18:22:10.517Z,94564.09
2023-05-02T18:24:39.049Z,94572.09
2023-05-02T18:27:15.093Z,94581.41
2023-05-02T18:29:43.940Z,94560.78
2023-05-02T18:32:12.909Z,94561.84
2023-05-02T18:35:10.538Z,94569.03
2023-05-02T18:38:07.635Z,94577.63
2023-05-02T18:40:36.155Z,94572.06
2023-05-02T18:43:06.007Z,94577.63
2023-05-02T18:45:34.915Z,94569.25
2023-05-02T18:48:04.113Z,94582.28
2023-05-02T18:50:36.516Z,94576.06
2023-05-02T18:53:05.155Z,94581.13
2023-05-02T18:55:34.122Z,94582.75
2023-05-02T18:58:02.674Z,94591.47
2023-05-02T19:00:36.962Z,94582.75
2023-05-02T19:03:06.266Z,94584.59
2023-05-02T19:05:35.659Z,94589.59
2023-05-02T19:08:05.462Z,94586.72
2023-05-02T19:10:59.473Z,94605.50
2023-05-02T19:13:28.101Z,94588.06
2023-05-02T19:15:57.955Z,94608.69
2023-05-02T19:18:26.452Z,94603.72
2023-05-02T19:20:55.077Z,94589.19
2023-05-02T19:23:23.485Z,94589.50
2023-05-02T19:25:52.575Z,94593.75
2023-05-02T19:28:21.076Z,94602.50
2023-05-02T19:31:17.577Z,94594.56
2023-05-02T19:33:51.150Z,94600.69
2023-05-02T19:36:21.854Z,94602.03
2023-05-02T19:38:51.145Z,94603.13
2023-05-02T19:41:19.915Z,94600.25
2023-05-02T19:43:48.542Z,94604.25
2023-05-02T19:46:19.055Z,94607.72
2023-05-02T19:48:47.660Z,94606.41
2023-05-02T19:51:16.197Z,94606.41
2023-05-02T19:53:44.674Z,94601.94
2023-05-02T19:56:13.161Z,94591.75
2023-05-02T19:58:41.661Z,94597.09
2023-05-02T20:01:10.165Z,94596.59
2023-05-02T20:03:40.221Z,94592.94
2023-05-02T20:06:08.916Z,94594.53
2023-05-02T20:08:37.452Z,94594.50
2023-05-02T20:11:06.239Z,94597.13
2023-05-02T20:13:34.702Z,94590.00
2023-05-02T20:16:03.170Z,94596.63
2023-05-02T20:18:31.900Z,94600.28
2023-05-02T20:21:26.931Z,94598.97
2023-05-02T20:23:58.153Z,94602.47
2023-05-02T20:26:26.669Z,94600.84
2023-05-02T20:28:58.629Z,94606.13
2023-05-02T20:31:27.401Z,94609.28
2023-05-02T20:33:55.876Z,94621.44
2023-05-02T20:36:24.398Z,94603.53
2023-05-02T20:38:54.297Z,94608.25
2023-05-02T20:41:23.976Z,94605.63
2023-05-02T20:43:54.517Z,94607.75
2023-05-02T20:46:24.828Z,94596.94
2023-05-02T20:48:54.867Z,94609.84
2023-05-02T20:51:23.325Z,94605.13
2023-05-02T20:53:53.235Z,94615.94
2023-05-02T20:56:21.808Z,94616.69
2023-05-02T20:58:50.338Z,94608.78
2023-05-02T21:01:18.849Z,94606.16
2023-05-02T21:03:47.448Z,94610.38
2023-05-02T21:06:16.034Z,94615.41
2023-05-02T21:08:44.473Z,94615.66
2023-05-02T21:11:15.520Z,94603.53
2023-05-02T21:13:44.497Z,94604.56
2023-05-02T21:16:20.229Z,94602.47
2023-05-02T21:18:49.215Z,94610.66
2023-05-02T21:21:17.733Z,94624.09
2023-05-02T21:23:54.185Z,94618.31
2023-05-02T21:26:48.929Z,94622.78
2023-05-02T21:29:17.493Z,94629.88
2023-05-02T21:31:46.912Z,94629.38
2023-05-02T21:34:22.030Z,94636.47
2023-05-02T21:36:50.496Z,94633.31
2023-05-02T21:39:45.951Z,94637.53
2023-05-02T21:42:15.780Z,94641.75
2023-05-02T21:44:44.210Z,94639.91
2023-05-02T21:47:12.964Z,94638.59
2023-05-02T21:50:06.665Z,94648.34
2023-05-02T21:52:36.186Z,94662.84
2023-05-02T21:55:05.237Z,94647.03
2023-05-02T21:57:40.076Z,94631.22
2023-05-02T22:00:14.221Z,94648.59
2023-05-02T22:03:07.532Z,94639.38
2023-05-02T22:05:38.926Z,94639.63
2023-05-02T22:08:08.290Z,94641.25
2023-05-02T22:10:39.129Z,94637.00
2023-05-02T22:13:16.341Z,94633.03
2023-05-02T22:15:46.281Z,94627.50
2023-05-02T22:18:34.010Z,94625.38
2023-05-02T22:21:02.578Z,94631.44
2023-05-02T22:23:31.614Z,94634.59
2023-05-02T22:26:25.399Z,94645.91
2023-05-02T22:28:55.279Z,94640.66
2023-05-02T22:31:23.889Z,94630.09
2023-05-02T22:33:52.380Z,94628.78
2023-05-02T22:36:21.154Z,94644.06
2023-05-02T22:38:49.719Z,94655.63
2023-05-02T22:41:20.636Z,94672.00
2023-05-02T22:43:49.512Z,94665.94
2023-05-02T22:46:19.463Z,94674.38
2023-05-02T22:48:49.195Z,94667.78
2023-05-02T22:51:18.000Z,94672.53
2023-05-02T22:53:46.381Z,94669.38
2023-05-02T22:56:40.049Z,94660.41
2023-05-02T22:59:08.419Z,94662.78
2023-05-02T23:01:39.836Z,94649.06
2023-05-02T23:04:08.413Z,94634.56
2023-05-02T23:06:37.066Z,94622.69
2023-05-02T23:09:07.012Z,94630.34
2023-05-02T23:11:35.562Z,94640.06
2023-05-02T23:14:04.017Z,94658.75
2023-05-02T23:16:32.557Z,94663.69
2023-05-02T23:19:02.486Z,94664.69
2023-05-02T23:21:35.971Z,94643.63
2023-05-02T23:24:04.737Z,94638.59
2023-05-02T23:26:33.278Z,94627.53
2023-05-02T23:29:01.823Z,94633.31
2023-05-02T23:31:55.655Z,94645.38
2023-05-02T23:34:26.165Z,94625.88
2023-05-02T23:36:54.862Z,94623.75
2023-05-02T23:39:23.827Z,94630.03
2023-05-02T23:41:52.956Z,94623.19
2023-05-02T23:44:57.677Z,94627.97
2023-05-02T23:47:27.216Z,94626.59
2023-05-02T23:49:57.263Z,94627.13
2023-05-02T23:52:25.919Z,94611.09
2023-05-02T23:54:54.801Z,94628.94
2023-05-02T23:58:17.974Z,94623.94
